sensor_id;sensor_type;location;lat;lon;timestamp;pressure;altitude;pressure_sealevel;temperature;humidity
67430;BME280;54298;52.076;5.264;2023-03-14T00:03:03;98771.0;;;11.36;80.8
67430;BME280;54298;52.076;5.264;2023-03-14T00:04:39;98780.0;;;11.43;80.77
67430;BME280;54298;52.076;5.264;2023-03-14T00:06:16;98781.0;;;11.51;80.27
67430;BME280;54298;52.076;5.264;2023-03-14T00:09:29;98785.0;;;11.5;79.99
67430;BME280;54298;52.076;5.264;2023-03-14T00:11:06;98786.0;;;11.63;80.33
67430;BME280;54298;52.076;5.264;2023-03-14T00:12:43;98783.0;;;11.54;79.69
67430;BME280;54298;52.076;5.264;2023-03-14T00:14:20;98778.0;;;11.46;79.14
67430;BME280;54298;52.076;5.264;2023-03-14T00:17:39;98771.0;;;11.47;78.75
67430;BME280;54298;52.076;5.264;2023-03-14T00:19:15;98776.0;;;11.47;78.44
67430;BME280;54298;52.076;5.264;2023-03-14T00:20:51;98770.0;;;11.54;78.36
67430;BME280;54298;52.076;5.264;2023-03-14T00:24:06;98778.0;;;11.59;78.24
67430;BME280;54298;52.076;5.264;2023-03-14T00:25:43;98775.0;;;11.45;76.97
67430;BME280;54298;52.076;5.264;2023-03-14T00:27:19;98782.0;;;11.41;76.62
67430;BME280;54298;52.076;5.264;2023-03-14T00:28:55;98781.0;;;11.35;76.34
67430;BME280;54298;52.076;5.264;2023-03-14T00:32:07;98767.0;;;11.24;75.8
67430;BME280;54298;52.076;5.264;2023-03-14T00:33:44;98775.0;;;11.31;75.98
67430;BME280;54298;52.076;5.264;2023-03-14T00:35:20;98775.0;;;11.35;76.3
67430;BME280;54298;52.076;5.264;2023-03-14T00:38:33;98778.0;;;11.38;75.47
67430;BME280;54298;52.076;5.264;2023-03-14T00:40:10;98774.0;;;11.42;75.02
67430;BME280;54298;52.076;5.264;2023-03-14T00:41:46;98783.0;;;11.35;74.99
67430;BME280;54298;52.076;5.264;2023-03-14T00:44:59;98790.0;;;11.44;74.91
67430;BME280;54298;52.076;5.264;2023-03-14T00:46:35;98778.0;;;11.5;74.66
67430;BME280;54298;52.076;5.264;2023-03-14T00:48:11;98781.0;;;11.54;74.38
67430;BME280;54298;52.076;5.264;2023-03-14T00:49:48;98773.0;;;11.52;74.38
67430;BME280;54298;52.076;5.264;2023-03-14T00:53:00;98774.0;;;11.42;74.41
67430;BME280;54298;52.076;5.264;2023-03-14T00:54:36;98776.0;;;11.34;74.5
67430;BME280;54298;52.076;5.264;2023-03-14T00:56:12;98780.0;;;11.47;74.97
67430;BME280;54298;52.076;5.264;2023-03-14T00:59:25;98784.0;;;11.34;75.77
67430;BME280;54298;52.076;5.264;2023-03-14T01:01:05;98780.0;;;11.22;76.03
67430;BME280;54298;52.076;5.264;2023-03-14T01:02:42;98788.0;;;11.08;76.75
67430;BME280;54298;52.076;5.264;2023-03-14T01:06:06;98784.0;;;11.24;76.83
67430;BME280;54298;52.076;5.264;2023-03-14T01:07:42;98793.0;;;11.21;76.86
67430;BME280;54298;52.076;5.264;2023-03-14T01:09:18;98793.0;;;11.12;77.95
67430;BME280;54298;52.076;5.264;2023-03-14T01:10:54;98785.0;;;11.03;79.02
67430;BME280;54298;52.076;5.264;2023-03-14T01:14:07;98792.0;;;11.03;79.56
67430;BME280;54298;52.076;5.264;2023-03-14T01:15:43;98796.0;;;11.11;79.75
67430;BME280;54298;52.076;5.264;2023-03-14T01:17:19;98793.0;;;10.93;81.16
67430;BME280;54298;52.076;5.264;2023-03-14T01:20:32;98799.0;;;10.82;82.39
67430;BME280;54298;52.076;5.264;2023-03-14T01:22:08;98810.0;;;10.77;83.38
67430;BME280;54298;52.076;5.264;2023-03-14T01:23:45;98806.0;;;10.75;83.83
67430;BME280;54298;52.076;5.264;2023-03-14T01:25:21;98808.0;;;10.69;84.26
67430;BME280;54298;52.076;5.264;2023-03-14T01:28:34;98805.0;;;10.66;84.77
67430;BME280;54298;52.076;5.264;2023-03-14T01:30:12;98803.0;;;10.64;84.92
67430;BME280;54298;52.076;5.264;2023-03-14T01:31:49;98805.0;;;10.57;85.42
67430;BME280;54298;52.076;5.264;2023-03-14T01:35:01;98789.0;;;10.57;85.13
67430;BME280;54298;52.076;5.264;2023-03-14T01:36:38;98791.0;;;10.42;85.99
67430;BME280;54298;52.076;5.264;2023-03-14T01:38:14;98790.0;;;10.51;85.51
67430;BME280;54298;52.076;5.264;2023-03-14T01:41:26;98789.0;;;10.57;85.24
67430;BME280;54298;52.076;5.264;2023-03-14T01:43:12;98787.0;;;10.68;84.69
67430;BME280;54298;52.076;5.264;2023-03-14T01:44:52;98787.0;;;10.61;84.54
67430;BME280;54298;52.076;5.264;2023-03-14T01:46:35;98786.0;;;10.6;84.18
67430;BME280;54298;52.076;5.264;2023-03-14T01:49:53;98784.0;;;10.6;84.12
67430;BME280;54298;52.076;5.264;2023-03-14T02:01:26;98764.0;;;10.52;83.78
67430;BME280;54298;52.076;5.264;2023-03-14T02:06:32;98765.0;;;10.49;82.92
67430;BME280;54298;52.076;5.264;2023-03-14T02:08:15;98763.0;;;10.51;83.11
67430;BME280;54298;52.076;5.264;2023-03-14T02:09:54;98756.0;;;10.46;83.14
67430;BME280;54298;52.076;5.264;2023-03-14T02:11:32;98755.0;;;10.5;82.9
67430;BME280;54298;52.076;5.264;2023-03-14T02:14:47;98760.0;;;10.58;82.59
67430;BME280;54298;52.076;5.264;2023-03-14T02:16:23;98763.0;;;10.56;82.7
67430;BME280;54298;52.076;5.264;2023-03-14T02:18:02;98750.0;;;10.54;82.76
67430;BME280;54298;52.076;5.264;2023-03-14T02:21:40;98759.0;;;10.52;82.92
67430;BME280;54298;52.076;5.264;2023-03-14T02:23:29;98752.0;;;10.52;82.65
67430;BME280;54298;52.076;5.264;2023-03-14T02:25:14;98743.0;;;10.58;82.54
67430;BME280;54298;52.076;5.264;2023-03-14T02:27:25;98745.0;;;10.57;82.34
67430;BME280;54298;52.076;5.264;2023-03-14T02:29:01;98746.0;;;10.69;82.0
67430;BME280;54298;52.076;5.264;2023-03-14T02:30:37;98740.0;;;10.63;82.07
67430;BME280;54298;52.076;5.264;2023-03-14T02:32:16;98734.0;;;10.59;82.13
67430;BME280;54298;52.076;5.264;2023-03-14T02:35:35;98740.0;;;10.6;82.34
67430;BME280;54298;52.076;5.264;2023-03-14T02:37:18;98739.0;;;10.51;82.6
67430;BME280;54298;52.076;5.264;2023-03-14T02:39:03;98735.0;;;10.52;82.74
67430;BME280;54298;52.076;5.264;2023-03-14T02:40:42;98742.0;;;10.39;83.45
67430;BME280;54298;52.076;5.264;2023-03-14T02:43:57;98734.0;;;10.48;83.19
67430;BME280;54298;52.076;5.264;2023-03-14T02:45:39;98735.0;;;10.41;83.34
67430;BME280;54298;52.076;5.264;2023-03-14T02:47:19;98738.0;;;10.44;83.7
67430;BME280;54298;52.076;5.264;2023-03-14T02:50:41;98733.0;;;10.49;83.42
67430;BME280;54298;52.076;5.264;2023-03-14T02:52:17;98734.0;;;10.46;83.52
67430;BME280;54298;52.076;5.264;2023-03-14T02:53:53;98728.0;;;10.38;84.08
67430;BME280;54298;52.076;5.264;2023-03-14T02:55:29;98727.0;;;10.34;84.14
67430;BME280;54298;52.076;5.264;2023-03-14T02:58:41;98725.0;;;10.39;84.31
67430;BME280;54298;52.076;5.264;2023-03-14T03:00:18;98719.0;;;10.41;84.25
67430;BME280;54298;52.076;5.264;2023-03-14T03:01:55;98720.0;;;10.3;84.09
67430;BME280;54298;52.076;5.264;2023-03-14T03:05:07;98722.0;;;10.42;84.11
67430;BME280;54298;52.076;5.264;2023-03-14T03:06:43;98718.0;;;10.39;84.16
67430;BME280;54298;52.076;5.264;2023-03-14T03:08:21;98726.0;;;10.55;83.64
67430;BME280;54298;52.076;5.264;2023-03-14T03:09:57;98728.0;;;10.5;83.74
67430;BME280;54298;52.076;5.264;2023-03-14T03:13:10;98721.0;;;10.43;84.01
67430;BME280;54298;52.076;5.264;2023-03-14T03:14:46;98728.0;;;10.64;83.32
67430;BME280;54298;52.076;5.264;2023-03-14T03:16:22;98719.0;;;10.51;83.16
67430;BME280;54298;52.076;5.264;2023-03-14T03:19:34;98718.0;;;10.55;83.09
67430;BME280;54298;52.076;5.264;2023-03-14T03:21:11;98715.0;;;10.46;83.2
67430;BME280;54298;52.076;5.264;2023-03-14T03:22:47;98716.0;;;10.5;83.05
67430;BME280;54298;52.076;5.264;2023-03-14T03:26:00;98710.0;;;10.48;83.06
67430;BME280;54298;52.076;5.264;2023-03-14T03:27:37;98705.0;;;10.51;82.76
67430;BME280;54298;52.076;5.264;2023-03-14T03:29:14;98702.0;;;10.53;82.45
67430;BME280;54298;52.076;5.264;2023-03-14T03:30:50;98699.0;;;10.55;82.32
67430;BME280;54298;52.076;5.264;2023-03-14T03:34:03;98702.0;;;10.68;81.89
67430;BME280;54298;52.076;5.264;2023-03-14T03:35:43;98700.0;;;10.54;82.04
67430;BME280;54298;52.076;5.264;2023-03-14T03:37:20;98695.0;;;10.55;82.07
67430;BME280;54298;52.076;5.264;2023-03-14T03:40:32;98695.0;;;10.52;82.06
67430;BME280;54298;52.076;5.264;2023-03-14T03:42:08;98692.0;;;10.47;82.06
67430;BME280;54298;52.076;5.264;2023-03-14T03:43:45;98690.0;;;10.49;82.09
67430;BME280;54298;52.076;5.264;2023-03-14T03:46:57;98697.0;;;10.56;81.77
67430;BME280;54298;52.076;5.264;2023-03-14T03:48:34;98696.0;;;10.6;81.47
67430;BME280;54298;52.076;5.264;2023-03-14T03:50:10;98695.0;;;10.66;80.86
67430;BME280;54298;52.076;5.264;2023-03-14T03:51:46;98695.0;;;10.52;80.94
67430;BME280;54298;52.076;5.264;2023-03-14T03:54:59;98691.0;;;10.62;80.61
67430;BME280;54298;52.076;5.264;2023-03-14T03:56:35;98696.0;;;10.6;80.56
67430;BME280;54298;52.076;5.264;2023-03-14T03:58:11;98690.0;;;10.72;80.03
67430;BME280;54298;52.076;5.264;2023-03-14T04:01:23;98692.0;;;10.67;79.83
67430;BME280;54298;52.076;5.264;2023-03-14T04:02:59;98690.0;;;10.75;79.62
67430;BME280;54298;52.076;5.264;2023-03-14T04:04:36;98686.0;;;10.84;79.08
67430;BME280;54298;52.076;5.264;2023-03-14T04:07:49;98686.0;;;10.9;78.66
67430;BME280;54298;52.076;5.264;2023-03-14T04:09:25;98694.0;;;10.84;78.92
67430;BME280;54298;52.076;5.264;2023-03-14T04:11:01;98692.0;;;10.97;78.61
67430;BME280;54298;52.076;5.264;2023-03-14T04:12:39;98701.0;;;10.87;78.56
67430;BME280;54298;52.076;5.264;2023-03-14T04:15:52;98698.0;;;11.04;78.2
67430;BME280;54298;52.076;5.264;2023-03-14T04:17:28;98693.0;;;10.97;78.14
67430;BME280;54298;52.076;5.264;2023-03-14T04:19:04;98696.0;;;10.9;78.41
67430;BME280;54298;52.076;5.264;2023-03-14T04:22:17;98691.0;;;10.88;78.52
67430;BME280;54298;52.076;5.264;2023-03-14T04:23:53;98696.0;;;10.91;78.48
67430;BME280;54298;52.076;5.264;2023-03-14T04:25:30;98699.0;;;10.96;78.37
67430;BME280;54298;52.076;5.264;2023-03-14T04:28:43;98700.0;;;10.99;78.08
67430;BME280;54298;52.076;5.264;2023-03-14T04:30:19;98700.0;;;11.01;78.14
67430;BME280;54298;52.076;5.264;2023-03-14T04:31:55;98703.0;;;11.07;77.98
67430;BME280;54298;52.076;5.264;2023-03-14T04:35:08;98693.0;;;11.04;78.08
67430;BME280;54298;52.076;5.264;2023-03-14T04:36:44;98699.0;;;10.93;78.47
67430;BME280;54298;52.076;5.264;2023-03-14T04:38:20;98695.0;;;11.0;78.38
67430;BME280;54298;52.076;5.264;2023-03-14T04:39:56;98688.0;;;10.98;78.59
67430;BME280;54298;52.076;5.264;2023-03-14T04:43:10;98684.0;;;10.97;78.72
67430;BME280;54298;52.076;5.264;2023-03-14T04:44:46;98678.0;;;10.84;79.23
67430;BME280;54298;52.076;5.264;2023-03-14T04:46:23;98672.0;;;10.99;79.0
67430;BME280;54298;52.076;5.264;2023-03-14T04:49:35;98681.0;;;11.02;78.78
67430;BME280;54298;52.076;5.264;2023-03-14T04:51:11;98675.0;;;11.03;78.81
67430;BME280;54298;52.076;5.264;2023-03-14T04:52:47;98678.0;;;11.09;78.44
67430;BME280;54298;52.076;5.264;2023-03-14T04:56:00;98678.0;;;10.99;78.84
67430;BME280;54298;52.076;5.264;2023-03-14T04:57:36;98685.0;;;10.92;79.47
67430;BME280;54298;52.076;5.264;2023-03-14T04:59:12;98685.0;;;10.98;79.61
67430;BME280;54298;52.076;5.264;2023-03-14T05:00:49;98673.0;;;10.87;80.05
67430;BME280;54298;52.076;5.264;2023-03-14T05:04:02;98670.0;;;10.82;80.7
67430;BME280;54298;52.076;5.264;2023-03-14T05:05:38;98678.0;;;10.78;80.88
67430;BME280;54298;52.076;5.264;2023-03-14T05:07:14;98675.0;;;10.81;80.97
67430;BME280;54298;52.076;5.264;2023-03-14T05:10:26;98673.0;;;10.89;80.91
67430;BME280;54298;52.076;5.264;2023-03-14T05:12:03;98670.0;;;10.87;81.23
67430;BME280;54298;52.076;5.264;2023-03-14T05:13:39;98673.0;;;10.88;81.99
67430;BME280;54298;52.076;5.264;2023-03-14T05:16:51;98665.0;;;10.94;82.17
67430;BME280;54298;52.076;5.264;2023-03-14T05:18:27;98662.0;;;11.03;82.17
67430;BME280;54298;52.076;5.264;2023-03-14T05:20:04;98655.0;;;10.94;82.59
67430;BME280;54298;52.076;5.264;2023-03-14T05:23:16;98655.0;;;11.01;82.53
67430;BME280;54298;52.076;5.264;2023-03-14T05:24:53;98655.0;;;10.86;83.04
67430;BME280;54298;52.076;5.264;2023-03-14T05:26:30;98659.0;;;10.9;83.37
67430;BME280;54298;52.076;5.264;2023-03-14T05:28:06;98655.0;;;10.87;83.33
67430;BME280;54298;52.076;5.264;2023-03-14T05:31:18;98652.0;;;10.75;83.87
67430;BME280;54298;52.076;5.264;2023-03-14T05:32:54;98652.0;;;10.86;83.91
67430;BME280;54298;52.076;5.264;2023-03-14T05:34:31;98648.0;;;10.62;84.81
67430;BME280;54298;52.076;5.264;2023-03-14T05:37:44;98652.0;;;10.66;85.06
67430;BME280;54298;52.076;5.264;2023-03-14T05:39:20;98655.0;;;10.7;85.04
67430;BME280;54298;52.076;5.264;2023-03-14T05:40:56;98651.0;;;10.59;85.45
67430;BME280;54298;52.076;5.264;2023-03-14T05:44:09;98651.0;;;10.74;85.27
67430;BME280;54298;52.076;5.264;2023-03-14T05:45:45;98653.0;;;10.74;85.49
67430;BME280;54298;52.076;5.264;2023-03-14T05:47:21;98655.0;;;10.48;86.79
67430;BME280;54298;52.076;5.264;2023-03-14T05:48:58;98652.0;;;10.32;87.31
67430;BME280;54298;52.076;5.264;2023-03-14T05:52:12;98655.0;;;10.46;87.29
67430;BME280;54298;52.076;5.264;2023-03-14T05:53:48;98655.0;;;10.47;87.18
67430;BME280;54298;52.076;5.264;2023-03-14T05:55:24;98662.0;;;10.48;87.39
67430;BME280;54298;52.076;5.264;2023-03-14T05:58:37;98663.0;;;10.39;87.8
67430;BME280;54298;52.076;5.264;2023-03-14T06:00:14;98659.0;;;10.43;87.95
67430;BME280;54298;52.076;5.264;2023-03-14T06:01:50;98655.0;;;10.48;87.57
67430;BME280;54298;52.076;5.264;2023-03-14T06:05:03;98655.0;;;10.37;88.43
67430;BME280;54298;52.076;5.264;2023-03-14T06:06:41;98649.0;;;10.52;88.09
67430;BME280;54298;52.076;5.264;2023-03-14T06:08:17;98651.0;;;10.5;88.28
67430;BME280;54298;52.076;5.264;2023-03-14T06:09:53;98655.0;;;10.41;88.65
67430;BME280;54298;52.076;5.264;2023-03-14T06:13:05;98653.0;;;10.24;89.69
67430;BME280;54298;52.076;5.264;2023-03-14T06:14:41;98661.0;;;10.31;89.58
67430;BME280;54298;52.076;5.264;2023-03-14T06:16:17;98662.0;;;10.38;89.33
67430;BME280;54298;52.076;5.264;2023-03-14T06:19:31;98665.0;;;10.52;88.84
67430;BME280;54298;52.076;5.264;2023-03-14T06:21:07;98660.0;;;10.51;89.04
67430;BME280;54298;52.076;5.264;2023-03-14T06:22:44;98663.0;;;10.48;89.27
67430;BME280;54298;52.076;5.264;2023-03-14T06:25:56;98678.0;;;10.52;89.35
67430;BME280;54298;52.076;5.264;2023-03-14T06:27:32;98678.0;;;10.35;90.32
67430;BME280;54298;52.076;5.264;2023-03-14T06:29:10;98708.0;;;10.35;90.73
67430;BME280;54298;52.076;5.264;2023-03-14T06:30:45;98689.0;;;9.89;89.25
67430;BME280;54298;52.076;5.264;2023-03-14T06:33:58;98726.0;;;9.9;90.21
67430;BME280;54298;52.076;5.264;2023-03-14T06:35:35;98734.0;;;9.81;89.48
67430;BME280;54298;52.076;5.264;2023-03-14T06:37:11;98751.0;;;9.64;88.63
67430;BME280;54298;52.076;5.264;2023-03-14T06:40:23;98761.0;;;9.56;88.58
67430;BME280;54298;52.076;5.264;2023-03-14T06:41:59;98771.0;;;9.64;87.38
67430;BME280;54298;52.076;5.264;2023-03-14T06:43:35;98772.0;;;9.65;87.09
67430;BME280;54298;52.076;5.264;2023-03-14T06:46:49;98770.0;;;9.44;86.57
67430;BME280;54298;52.076;5.264;2023-03-14T06:48:25;98777.0;;;9.28;87.41
67430;BME280;54298;52.076;5.264;2023-03-14T06:50:02;98792.0;;;9.22;87.54
67430;BME280;54298;52.076;5.264;2023-03-14T06:51:39;98797.0;;;9.0;88.69
67430;BME280;54298;52.076;5.264;2023-03-14T06:54:53;98799.0;;;8.9;89.45
67430;BME280;54298;52.076;5.264;2023-03-14T06:56:29;98801.0;;;9.09;88.89
67430;BME280;54298;52.076;5.264;2023-03-14T06:58:05;98803.0;;;9.05;89.4
67430;BME280;54298;52.076;5.264;2023-03-14T07:01:21;98806.0;;;9.01;89.36
67430;BME280;54298;52.076;5.264;2023-03-14T07:02:58;98818.0;;;8.9;89.76
67430;BME280;54298;52.076;5.264;2023-03-14T07:04:34;98824.0;;;8.93;89.63
67430;BME280;54298;52.076;5.264;2023-03-14T07:07:46;98830.0;;;9.05;89.62
67430;BME280;54298;52.076;5.264;2023-03-14T07:09:23;98835.0;;;8.98;89.33
67430;BME280;54298;52.076;5.264;2023-03-14T07:10:59;98842.0;;;9.02;89.28
67430;BME280;54298;52.076;5.264;2023-03-14T07:12:35;98852.0;;;9.22;88.9
67430;BME280;54298;52.076;5.264;2023-03-14T07:15:47;98858.0;;;9.17;89.01
67430;BME280;54298;52.076;5.264;2023-03-14T07:17:23;98864.0;;;9.08;89.19
67430;BME280;54298;52.076;5.264;2023-03-14T07:19:00;98871.0;;;8.99;89.05
67430;BME280;54298;52.076;5.264;2023-03-14T07:22:13;98885.0;;;9.09;89.38
67430;BME280;54298;52.076;5.264;2023-03-14T07:23:49;98892.0;;;8.94;89.44
67430;BME280;54298;52.076;5.264;2023-03-14T07:25:25;98897.0;;;8.86;89.56
67430;BME280;54298;52.076;5.264;2023-03-14T07:28:38;98913.0;;;8.66;89.88
67430;BME280;54298;52.076;5.264;2023-03-14T07:30:14;98923.0;;;8.91;89.31
67430;BME280;54298;52.076;5.264;2023-03-14T07:31:50;98933.0;;;8.89;88.99
67430;BME280;54298;52.076;5.264;2023-03-14T07:35:03;98937.0;;;8.73;89.55
67430;BME280;54298;52.076;5.264;2023-03-14T07:36:40;98944.0;;;8.89;89.0
67430;BME280;54298;52.076;5.264;2023-03-14T07:38:16;98951.0;;;8.98;88.79
67430;BME280;54298;52.076;5.264;2023-03-14T07:39:52;98961.0;;;8.66;88.88
67430;BME280;54298;52.076;5.264;2023-03-14T07:43:04;98974.0;;;8.73;89.1
67430;BME280;54298;52.076;5.264;2023-03-14T07:44:41;98977.0;;;8.81;88.8
67430;BME280;54298;52.076;5.264;2023-03-14T07:46:17;98994.0;;;8.88;89.16
67430;BME280;54298;52.076;5.264;2023-03-14T07:49:28;98998.0;;;8.73;89.09
67430;BME280;54298;52.076;5.264;2023-03-14T07:51:05;99005.0;;;8.76;88.94
67430;BME280;54298;52.076;5.264;2023-03-14T07:52:41;99009.0;;;8.78;88.76
67430;BME280;54298;52.076;5.264;2023-03-14T07:55:53;99019.0;;;8.57;88.45
67430;BME280;54298;52.076;5.264;2023-03-14T07:57:29;99033.0;;;8.53;87.51
67430;BME280;54298;52.076;5.264;2023-03-14T07:59:05;99042.0;;;8.35;88.2
67430;BME280;54298;52.076;5.264;2023-03-14T08:00:42;99050.0;;;8.25;88.59
67430;BME280;54298;52.076;5.264;2023-03-14T08:03:55;99059.0;;;8.28;88.46
67430;BME280;54298;52.076;5.264;2023-03-14T08:05:34;99064.0;;;8.02;87.76
67430;BME280;54298;52.076;5.264;2023-03-14T08:07:10;99077.0;;;8.02;87.49
67430;BME280;54298;52.076;5.264;2023-03-14T08:10:22;99087.0;;;7.91;87.66
67430;BME280;54298;52.076;5.264;2023-03-14T08:11:58;99094.0;;;8.14;87.74
67430;BME280;54298;52.076;5.264;2023-03-14T08:13:35;99110.0;;;7.88;88.08
67430;BME280;54298;52.076;5.264;2023-03-14T08:16:49;99120.0;;;7.73;89.25
67430;BME280;54298;52.076;5.264;2023-03-14T08:18:26;99137.0;;;7.51;89.77
67430;BME280;54298;52.076;5.264;2023-03-14T08:20:03;99151.0;;;7.38;90.43
67430;BME280;54298;52.076;5.264;2023-03-14T08:21:39;99161.0;;;7.48;89.84
67430;BME280;54298;52.076;5.264;2023-03-14T08:24:51;99168.0;;;7.16;89.77
67430;BME280;54298;52.076;5.264;2023-03-14T08:26:27;99180.0;;;7.34;89.31
67430;BME280;54298;52.076;5.264;2023-03-14T08:28:04;99212.0;;;6.79;89.33
67430;BME280;54298;52.076;5.264;2023-03-14T08:31:17;99212.0;;;6.56;88.86
67430;BME280;54298;52.076;5.264;2023-03-14T08:32:53;99209.0;;;6.34;90.16
67430;BME280;54298;52.076;5.264;2023-03-14T08:34:33;99215.0;;;6.39;90.38
67430;BME280;54298;52.076;5.264;2023-03-14T08:37:46;99233.0;;;6.1;91.68
67430;BME280;54298;52.076;5.264;2023-03-14T08:39:22;99238.0;;;6.16;91.95
67430;BME280;54298;52.076;5.264;2023-03-14T08:41:00;99256.0;;;6.34;92.62
67430;BME280;54298;52.076;5.264;2023-03-14T08:42:37;99262.0;;;6.46;91.61
67430;BME280;54298;52.076;5.264;2023-03-14T08:45:50;99267.0;;;6.16;90.58
67430;BME280;54298;52.076;5.264;2023-03-14T08:47:26;99269.0;;;6.13;90.21
67430;BME280;54298;52.076;5.264;2023-03-14T08:49:03;99285.0;;;6.4;90.07
67430;BME280;54298;52.076;5.264;2023-03-14T08:52:17;99300.0;;;6.27;90.26
67430;BME280;54298;52.076;5.264;2023-03-14T08:53:52;99306.0;;;6.31;88.77
67430;BME280;54298;52.076;5.264;2023-03-14T08:55:29;99310.0;;;6.38;89.48
67430;BME280;54298;52.076;5.264;2023-03-14T08:58:41;99328.0;;;6.07;88.2
67430;BME280;54298;52.076;5.264;2023-03-14T09:00:19;99319.0;;;6.1;88.56
67430;BME280;54298;52.076;5.264;2023-03-14T09:01:55;99333.0;;;6.22;90.08
67430;BME280;54298;52.076;5.264;2023-03-14T09:03:31;99343.0;;;6.18;89.17
67430;BME280;54298;52.076;5.264;2023-03-14T09:06:44;99359.0;;;6.29;88.45
67430;BME280;54298;52.076;5.264;2023-03-14T09:08:21;99362.0;;;6.46;89.29
67430;BME280;54298;52.076;5.264;2023-03-14T09:09:57;99371.0;;;6.22;88.25
67430;BME280;54298;52.076;5.264;2023-03-14T09:13:09;99380.0;;;6.38;87.63
67430;BME280;54298;52.076;5.264;2023-03-14T09:14:45;99386.0;;;6.2;87.78
67430;BME280;54298;52.076;5.264;2023-03-14T09:16:21;99399.0;;;6.39;87.99
67430;BME280;54298;52.076;5.264;2023-03-14T09:19:34;99408.0;;;6.55;87.28
67430;BME280;54298;52.076;5.264;2023-03-14T09:21:10;99407.0;;;6.54;86.07
67430;BME280;54298;52.076;5.264;2023-03-14T09:22:46;99418.0;;;6.51;87.14
67430;BME280;54298;52.076;5.264;2023-03-14T09:24:22;99426.0;;;6.81;85.99
67430;BME280;54298;52.076;5.264;2023-03-14T09:27:35;99434.0;;;6.65;86.22
67430;BME280;54298;52.076;5.264;2023-03-14T09:29:11;99441.0;;;6.69;85.09
67430;BME280;54298;52.076;5.264;2023-03-14T09:30:47;99453.0;;;6.8;84.58
67430;BME280;54298;52.076;5.264;2023-03-14T09:33:59;99453.0;;;6.61;84.93
67430;BME280;54298;52.076;5.264;2023-03-14T09:35:35;99470.0;;;6.67;84.61
67430;BME280;54298;52.076;5.264;2023-03-14T09:37:12;99487.0;;;6.79;85.9
67430;BME280;54298;52.076;5.264;2023-03-14T09:40:27;99506.0;;;6.71;84.39
67430;BME280;54298;52.076;5.264;2023-03-14T09:42:13;99505.0;;;6.53;83.54
67430;BME280;54298;52.076;5.264;2023-03-14T09:44:01;99499.0;;;6.65;82.96
67430;BME280;54298;52.076;5.264;2023-03-14T09:45:40;99512.0;;;6.45;83.32
67430;BME280;54298;52.076;5.264;2023-03-14T09:48:54;99518.0;;;6.56;82.27
67430;BME280;54298;52.076;5.264;2023-03-14T09:50:36;99527.0;;;6.75;82.75
67430;BME280;54298;52.076;5.264;2023-03-14T09:52:15;99535.0;;;6.63;82.89
67430;BME280;54298;52.076;5.264;2023-03-14T09:53:55;99539.0;;;6.65;82.37
67430;BME280;54298;52.076;5.264;2023-03-14T09:57:12;99549.0;;;6.41;81.41
67430;BME280;54298;52.076;5.264;2023-03-14T09:58:52;99555.0;;;6.66;81.58
67430;BME280;54298;52.076;5.264;2023-03-14T10:00:31;99559.0;;;6.89;82.31
67430;BME280;54298;52.076;5.264;2023-03-14T10:02:15;99568.0;;;6.91;81.05
67430;BME280;54298;52.076;5.264;2023-03-14T10:05:32;99569.0;;;7.09;81.39
67430;BME280;54298;52.076;5.264;2023-03-14T10:07:11;99577.0;;;7.11;80.45
67430;BME280;54298;52.076;5.264;2023-03-14T10:08:50;99588.0;;;7.05;80.31
67430;BME280;54298;52.076;5.264;2023-03-14T10:10:26;99596.0;;;7.08;80.08
67430;BME280;54298;52.076;5.264;2023-03-14T10:13:47;99611.0;;;7.19;80.22
67430;BME280;54298;52.076;5.264;2023-03-14T10:15:30;99617.0;;;7.19;81.96
67430;BME280;54298;52.076;5.264;2023-03-14T10:17:08;99635.0;;;7.07;83.18
67430;BME280;54298;52.076;5.264;2023-03-14T10:18:46;99651.0;;;7.09;84.27
67430;BME280;54298;52.076;5.264;2023-03-14T10:22:12;99662.0;;;6.77;84.63
67430;BME280;54298;52.076;5.264;2023-03-14T10:23:50;99685.0;;;6.26;84.05
67430;BME280;54298;52.076;5.264;2023-03-14T10:25:28;99667.0;;;6.14;84.04
67430;BME280;54298;52.076;5.264;2023-03-14T10:27:18;99678.0;;;6.1;82.8
67430;BME280;54298;52.076;5.264;2023-03-14T10:30:43;99680.0;;;6.11;85.26
67430;BME280;54298;52.076;5.264;2023-03-14T10:32:21;99687.0;;;6.46;85.84
67430;BME280;54298;52.076;5.264;2023-03-14T10:34:04;99697.0;;;6.31;85.06
67430;BME280;54298;52.076;5.264;2023-03-14T10:35:41;99696.0;;;6.29;83.76
67430;BME280;54298;52.076;5.264;2023-03-14T10:38:58;99708.0;;;6.38;84.08
67430;BME280;54298;52.076;5.264;2023-03-14T10:40:53;99719.0;;;6.48;84.3
67430;BME280;54298;52.076;5.264;2023-03-14T10:42:32;99720.0;;;6.33;83.57
67430;BME280;54298;52.076;5.264;2023-03-14T10:44:11;99734.0;;;6.67;85.38
67430;BME280;54298;52.076;5.264;2023-03-14T10:47:32;99741.0;;;6.81;84.36
67430;BME280;54298;52.076;5.264;2023-03-14T10:49:25;99759.0;;;6.75;85.0
67430;BME280;54298;52.076;5.264;2023-03-14T10:51:05;99755.0;;;6.61;81.64
67430;BME280;54298;52.076;5.264;2023-03-14T10:52:47;99764.0;;;6.93;81.61
67430;BME280;54298;52.076;5.264;2023-03-14T10:54:24;99777.0;;;6.9;82.94
67430;BME280;54298;52.076;5.264;2023-03-14T10:57:43;99794.0;;;6.99;83.67
67430;BME280;54298;52.076;5.264;2023-03-14T10:59:19;99800.0;;;6.75;82.31
67430;BME280;54298;52.076;5.264;2023-03-14T11:01:03;99819.0;;;6.43;77.41
67430;BME280;54298;52.076;5.264;2023-03-14T11:02:53;99831.0;;;6.49;80.19
67430;BME280;54298;52.076;5.264;2023-03-14T11:06:41;99827.0;;;6.3;77.48
67430;BME280;54298;52.076;5.264;2023-03-14T11:08:24;99838.0;;;6.26;77.94
67430;BME280;54298;52.076;5.264;2023-03-14T11:10:11;99837.0;;;6.41;78.62
67430;BME280;54298;52.076;5.264;2023-03-14T11:11:54;99847.0;;;6.27;79.49
67430;BME280;54298;52.076;5.264;2023-03-14T11:13:45;99853.0;;;6.65;78.44
67430;BME280;54298;52.076;5.264;2023-03-14T11:15:30;99865.0;;;6.75;77.61
67430;BME280;54298;52.076;5.264;2023-03-14T11:19:05;99874.0;;;6.78;76.08
67430;BME280;54298;52.076;5.264;2023-03-14T11:21:08;99875.0;;;6.68;77.19
67430;BME280;54298;52.076;5.264;2023-03-14T11:22:54;99888.0;;;6.57;76.05
67430;BME280;54298;52.076;5.264;2023-03-14T11:24:42;99894.0;;;6.42;75.58
67430;BME280;54298;52.076;5.264;2023-03-14T11:26:32;99894.0;;;6.63;73.62
67430;BME280;54298;52.076;5.264;2023-03-14T11:28:17;99902.0;;;6.68;72.55
67430;BME280;54298;52.076;5.264;2023-03-14T11:30:03;99911.0;;;6.83;69.78
67430;BME280;54298;52.076;5.264;2023-03-14T11:33:37;99912.0;;;7.08;72.58